Aviation Digital Data Service (ADDS)

Output produced by METARs form (0504 UTC 21 September 2017)
found at http://www.aviationweather.gov/adds/metars/
 
GMAD 210500Z VRB01KT 9999 SCT010 SCT016 19/15 Q1015 NOSIG
TAF GMAD 202300Z 2100/2206 18006KT 8000 SCT016 
     BECMG 2111/2114 28012KT CAVOK 
     BECMG 2118/2121 12006KT
       
GMFO 210500Z VRB04KT CAVOK 14/10 Q1016 NOSIG
TAF GMFO 202300Z 2100/2206 VRB02KT CAVOK 
     PROB30 
     TEMPO 2104/2107 VRB02KT 9999 BKN006 
     BECMG 2114/2118 32016KT 9999 SCT026
       
GMMW 210500Z 25005KT 6000 NSC 14/14 Q1016 NOSIG
TAF GMMW 202300Z 2100/2206 VRB02KT 9999 SCT009 SCT200 
     TEMPO 2110/2118 04010KT 
     TEMPO 2200/2206 2000 BR BKN020
       
GMFM 210500Z 00000KT CAVOK 16/10 Q1016 NOSIG
TAF GMFM 202300Z 2100/2206 VRB02KT 6000 BKN010 
     TEMPO 2104/2108 3000 BR 
     BECMG 2114/2118 32010KT SCT020 SCT200 
     BECMG 2122/2202 VRB02KT CAVOK
       
GMTA 210500Z 12002KT 6000 BKN013 21/19 Q1015 NOSIG
TAF GMTA 202300Z 2100/2206 VRB02KT 8000 NSC 
     PROB30 2100/2106 3000 BR 
     BECMG 2110/2112 03010KT FEW020 
     PROB30 2122/2206 VRB02KT 4000 BR
       
GMMI 210500Z AUTO 06004KT 9999NDV NCD ///// Q1015 NOSIG
TAF GMMI 202300Z 2100/2206 06008KT 8000 NSC 
     PROB30 2100/2107 VRB01KT 3000 BR FEW010
       
GMAD 210500Z VRB01KT 9999 SCT010 SCT016 19/15 Q1015 NOSIG
TAF GMAD 202300Z 2100/2206 18006KT 8000 SCT016 
     BECMG 2111/2114 28012KT CAVOK 
     BECMG 2118/2121 12006KT
       
GMFF 210500Z 14002KT CAVOK 17/09 Q1017 NOSIG
TAF GMFF 202300Z 2100/2206 20004KT CAVOK 
     BECMG 2104/2107 BKN010 
     BECMG 2110/2114 34010KT FEW033 
     BECMG 2116/2120 20004KT CAVOK
       
GMFM 210500Z 00000KT CAVOK 16/10 Q1016 NOSIG
TAF GMFM 202300Z 2100/2206 VRB02KT 6000 BKN010 
     TEMPO 2104/2108 3000 BR 
     BECMG 2114/2118 32010KT SCT020 SCT200 
     BECMG 2122/2202 VRB02KT CAVOK
       
GMFO 210500Z VRB04KT CAVOK 14/10 Q1016 NOSIG
TAF GMFO 202300Z 2100/2206 VRB02KT CAVOK 
     PROB30 
     TEMPO 2104/2107 VRB02KT 9999 BKN006 
     BECMG 2114/2118 32016KT 9999 SCT026
       
GMMB 210400Z AUTO 00000KT //// ////// 17/17 Q1016 NOSIG
GMME 210430Z 14003KT 110V180 8000 SCT010 16/14 Q1015 NOSIG
TAF GMME 202300Z 2100/2206 14004KT 3000 BR SCT006 SCT015 
     TEMPO 2104/2107 VRB02KT 0800 FG BKN003 SCT010 
     BECMG 2108/2112 32008KT 5000 NSW NSC 
     TEMPO 2112/2118 VRB03KT CAVOK
       
TAF GMMH 202300Z 2100/2206 02022KT 8000 FEW010 
     TEMPO 2114/2120 08022G32KT 
     PROB40 2115/2120 3000 DU
       
GMMI 210500Z AUTO 06004KT 9999NDV NCD ///// Q1015 NOSIG
TAF GMMI 202300Z 2100/2206 06008KT 8000 NSC 
     PROB30 2100/2107 VRB01KT 3000 BR FEW010
       
GMML 210500Z 36009KT 8000 FEW020 18/17 Q1016 NOSIG
TAF GMML 202300Z 2100/2206 02010KT 8000 FEW010 
     TEMPO 2100/2124 BKN010
       
GMMN 210500Z VRB02KT 6000 SCT008 SCT016 17/17 Q1016 TEMPO 4000 BR BKN006
TAF GMMN 202300Z 2100/2206 30004KT 9999 FEW010 
     PROB30 
     TEMPO 2103/2108 3000 BR 
     BECMG 2111/2113 33011KT 
     BECMG 2118/2121 04003KT
       
GMMW 210500Z 25005KT 6000 NSC 14/14 Q1016 NOSIG
TAF GMMW 202300Z 2100/2206 VRB02KT 9999 SCT009 SCT200 
     TEMPO 2110/2118 04010KT 
     TEMPO 2200/2206 2000 BR BKN020
       
GMMX 210500Z 23007KT 7000 NSC 16/12 Q1016 NOSIG
TAF GMMX 202300Z 2100/2206 24005KT 8000 NSC 
     TEMPO 2114/2120 34015KT SCT030 SCT200
       
GMMZ 210500Z VRB02KT CAVOK 19/M04 Q1019 NOSIG
TAF GMMZ 202300Z 2100/2206 VRB02KT CAVOK
       
GMTA 210500Z 12002KT 6000 BKN013 21/19 Q1015 NOSIG
TAF GMTA 202300Z 2100/2206 VRB02KT 8000 NSC 
     PROB30 2100/2106 3000 BR 
     BECMG 2110/2112 03010KT FEW020 
     PROB30 2122/2206 VRB02KT 4000 BR
       
GMTN 210500Z 00000KT 4000 BR SCT010 18/17 Q1015 NOSIG
GMTT 210500Z 11002KT 8000 FEW010 SCT016 18/15 Q1015 NOSIG
TAF GMTT 202300Z 2100/2206 10008KT 8000 FEW011 SCT016 
     PROB30 2103/2108 4000 BR 
     PROB30 2201/2206 4000 BR
       
GMTT 210500Z 11002KT 8000 FEW010 SCT016 18/15 Q1015 NOSIG
TAF GMTT 202300Z 2100/2206 10008KT 8000 FEW011 SCT016 
     PROB30 2103/2108 4000 BR 
     PROB30 2201/2206 4000 BR
       
GMMX 210500Z 23007KT 7000 NSC 16/12 Q1016 NOSIG
TAF GMMX 202300Z 2100/2206 24005KT 8000 NSC 
     TEMPO 2114/2120 34015KT SCT030 SCT200
       
GMMN 210500Z VRB02KT 6000 SCT008 SCT016 17/17 Q1016 TEMPO 4000 BR BKN006
TAF GMMN 202300Z 2100/2206 30004KT 9999 FEW010 
     PROB30 
     TEMPO 2103/2108 3000 BR 
     BECMG 2111/2113 33011KT 
     BECMG 2118/2121 04003KT
       
GMMZ 210500Z VRB02KT CAVOK 19/M04 Q1019 NOSIG
TAF GMMZ 202300Z 2100/2206 VRB02KT CAVOK
       
GMFF 210500Z 14002KT CAVOK 17/09 Q1017 NOSIG
TAF GMFF 202300Z 2100/2206 20004KT CAVOK 
     BECMG 2104/2107 BKN010 
     BECMG 2110/2114 34010KT FEW033 
     BECMG 2116/2120 20004KT CAVOK
       
GMME 210430Z 14003KT 110V180 8000 SCT010 16/14 Q1015 NOSIG
TAF GMME 202300Z 2100/2206 14004KT 3000 BR SCT006 SCT015 
     TEMPO 2104/2107 VRB02KT 0800 FG BKN003 SCT010 
     BECMG 2108/2112 32008KT 5000 NSW NSC 
     TEMPO 2112/2118 VRB03KT CAVOK
       
GMTN 210500Z 00000KT 4000 BR SCT010 18/17 Q1015 NOSIG